Time,TemperatureF,DewpointF,PressureIn,WindDirection,WindDirectionDegrees,WindSpeedMPH,WindSpeedGustMPH,Humidity,HourlyPrecipIn,Conditions,Clouds,dailyrainin,SolarRadiationWatts/m^2,SoftwareType,DateUTC
2013-10-24 00:21:00,47.0,30.0,-100.00,East,101,5.0,10.0,52,0.00,,,-99.99,0.000000,,2013-10-24 06:21:00,
2013-10-24 00:32:00,47.0,30.0,-100.00,East,101,5.0,10.0,52,0.00,,,-99.99,0.000000,,2013-10-24 06:32:00,
2013-10-24 00:42:00,47.0,30.0,-100.00,East,101,5.0,10.0,52,0.00,,,-99.99,0.000000,,2013-10-24 06:42:00,
2013-10-24 00:52:00,47.0,30.0,-100.00,East,101,5.0,10.0,52,0.00,,,-99.99,0.000000,,2013-10-24 06:52:00,
2013-10-24 01:21:00,45.0,31.0,-100.00,East,88,3.0,10.0,58,0.00,,,0.00,0.000000,,2013-10-24 07:21:00,
2013-10-24 01:32:00,45.0,31.0,-100.00,East,88,3.0,10.0,58,0.00,,,0.00,0.000000,,2013-10-24 07:32:00,
2013-10-24 01:42:00,45.0,31.0,-100.00,East,88,3.0,10.0,58,0.00,,,0.00,0.000000,,2013-10-24 07:42:00,
2013-10-24 01:52:00,45.0,31.0,-100.00,East,88,3.0,10.0,58,0.00,,,0.00,0.000000,,2013-10-24 07:52:00,
2013-10-24 02:21:00,41.0,25.0,-100.00,East,93,6.0,7.0,53,0.00,,,0.00,0.000000,,2013-10-24 08:21:00,
2013-10-24 02:32:00,41.0,25.0,-100.00,East,93,6.0,7.0,53,0.00,,,0.00,0.000000,,2013-10-24 08:32:00,
2013-10-24 02:42:00,41.0,25.0,-100.00,East,93,6.0,7.0,53,0.00,,,0.00,0.000000,,2013-10-24 08:42:00,
2013-10-24 02:53:00,41.0,25.0,-100.00,East,93,6.0,7.0,53,0.00,,,0.00,0.000000,,2013-10-24 08:53:00,
2013-10-24 03:22:00,43.0,30.0,-100.00,ESE,102,2.0,10.0,60,0.00,,,0.00,0.000000,,2013-10-24 09:22:00,
2013-10-24 03:33:00,43.0,30.0,-100.00,ESE,102,2.0,10.0,60,0.00,,,0.00,0.000000,,2013-10-24 09:33:00,
2013-10-24 03:43:00,43.0,30.0,-100.00,ESE,102,2.0,10.0,60,0.00,,,0.00,0.000000,,2013-10-24 09:43:00,
2013-10-24 03:53:00,43.0,30.0,-100.00,ESE,102,2.0,10.0,60,0.00,,,0.00,0.000000,,2013-10-24 09:53:00,
2013-10-24 04:23:00,39.0,24.0,-100.00,NE,51,4.0,7.0,55,0.00,,,0.00,0.000000,,2013-10-24 10:23:00,
2013-10-24 04:33:00,39.0,24.0,-100.00,NE,51,4.0,7.0,55,0.00,,,0.00,0.000000,,2013-10-24 10:33:00,
2013-10-24 04:43:00,39.0,24.0,-100.00,NE,51,4.0,7.0,55,0.00,,,0.00,0.000000,,2013-10-24 10:43:00,
2013-10-24 04:52:00,39.0,24.0,-100.00,NE,51,4.0,7.0,55,0.00,,,0.00,0.000000,,2013-10-24 10:52:00,
2013-10-24 05:42:00,39.0,29.0,-100.00,ESE,103,2.0,7.0,68,-99.99,,,0.00,0.000000,,2013-10-24 11:42:00,
2013-10-24 05:52:00,39.0,29.0,-100.00,ESE,103,2.0,7.0,68,-99.99,,,0.00,0.000000,,2013-10-24 11:52:00,
2013-10-24 07:22:00,34.0,26.0,-100.00,ESE,109,3.0,4.0,71,-99.99,,,0.00,0.000000,,2013-10-24 13:22:00,
2013-10-24 07:32:00,34.0,26.0,-100.00,ESE,109,3.0,4.0,71,-99.99,,,0.00,0.000000,,2013-10-24 13:32:00,
2013-10-24 07:42:00,34.0,26.0,-100.00,ESE,109,3.0,4.0,71,-99.99,,,0.00,0.000000,,2013-10-24 13:42:00,
2013-10-24 07:52:00,34.0,26.0,-100.00,ESE,109,3.0,4.0,71,-99.99,,,0.00,0.000000,,2013-10-24 13:52:00,
2013-10-24 08:42:00,35.0,24.0,-100.00,East,88,3.0,4.0,64,-99.99,,,0.00,0.000000,,2013-10-24 14:42:00,
2013-10-24 08:51:00,35.0,24.0,-100.00,East,88,3.0,4.0,64,-99.99,,,0.00,0.000000,,2013-10-24 14:51:00,
2013-10-24 10:23:00,44.0,21.0,-100.00,SW,215,0.0,5.0,40,0.00,,,0.00,181.000000,,2013-10-24 16:23:00,
2013-10-24 10:32:00,44.0,21.0,-100.00,SW,215,0.0,5.0,40,0.00,,,0.00,181.000000,,2013-10-24 16:32:00,
2013-10-24 10:42:00,44.0,21.0,-100.00,SW,215,0.0,5.0,40,0.00,,,0.00,181.000000,,2013-10-24 16:42:00,
2013-10-24 10:53:00,44.0,21.0,-100.00,SW,215,0.0,5.0,40,0.00,,,0.00,181.000000,,2013-10-24 16:53:00,
2013-10-24 11:22:00,54.0,26.0,-100.00,WNW,286,3.0,4.0,34,-99.99,,,0.00,374.000000,,2013-10-24 17:22:00,
2013-10-24 11:34:00,54.0,26.0,-100.00,WNW,286,3.0,4.0,34,-99.99,,,0.00,374.000000,,2013-10-24 17:34:00,
2013-10-24 12:42:00,58.0,26.0,-100.00,WNW,292,2.0,6.0,29,-99.99,,,-99.99,521.000000,,2013-10-24 18:42:00,
2013-10-24 13:22:00,62.0,23.0,-100.00,NW,305,3.0,6.0,22,-99.99,,,0.00,774.000000,,2013-10-24 19:22:00,
2013-10-24 13:32:00,62.0,23.0,-100.00,NW,305,3.0,6.0,22,-99.99,,,0.00,774.000000,,2013-10-24 19:32:00,
2013-10-24 13:43:00,62.0,23.0,-100.00,NW,305,3.0,6.0,22,-99.99,,,0.00,774.000000,,2013-10-24 19:43:00,
2013-10-24 13:53:00,62.0,23.0,-100.00,NW,305,3.0,6.0,22,-99.99,,,0.00,774.000000,,2013-10-24 19:53:00,
2013-10-24 14:22:00,68.0,27.0,-100.00,SSW,194,6.0,7.0,21,-99.99,,,0.00,910.000000,,2013-10-24 20:22:00,
2013-10-24 14:32:00,68.0,27.0,-100.00,SSW,194,6.0,7.0,21,-99.99,,,0.00,910.000000,,2013-10-24 20:32:00,
2013-10-24 14:42:00,68.0,27.0,-100.00,SSW,194,6.0,7.0,21,-99.99,,,0.00,910.000000,,2013-10-24 20:42:00,
2013-10-24 14:53:00,68.0,27.0,-100.00,SSW,194,6.0,7.0,21,-99.99,,,0.00,910.000000,,2013-10-24 20:53:00,
2013-10-24 15:22:00,69.0,25.0,-100.00,NW,317,6.0,11.0,19,0.00,,,0.00,861.000000,,2013-10-24 21:22:00,
2013-10-24 15:34:00,69.0,25.0,-100.00,NW,317,6.0,11.0,19,0.00,,,0.00,861.000000,,2013-10-24 21:34:00,
2013-10-24 15:43:00,69.0,25.0,-100.00,NW,317,6.0,11.0,19,0.00,,,0.00,861.000000,,2013-10-24 21:43:00,
2013-10-24 15:54:00,69.0,25.0,-100.00,NW,317,6.0,11.0,19,0.00,,,0.00,861.000000,,2013-10-24 21:54:00,
2013-10-24 16:24:00,70.0,22.0,-100.00,NW,323,5.0,10.0,16,0.00,,,0.00,770.000000,,2013-10-24 22:24:00,
2013-10-24 16:34:00,70.0,22.0,-100.00,NW,323,5.0,10.0,16,0.00,,,0.00,770.000000,,2013-10-24 22:34:00,
2013-10-24 16:43:00,70.0,22.0,-100.00,NW,323,5.0,10.0,16,0.00,,,0.00,770.000000,,2013-10-24 22:43:00,
2013-10-24 16:54:00,70.0,22.0,-100.00,NW,323,5.0,10.0,16,0.00,,,0.00,770.000000,,2013-10-24 22:54:00,
2013-10-24 17:22:00,73.0,27.0,-100.00,NW,320,5.0,13.0,18,0.00,,,0.00,644.000000,,2013-10-24 23:22:00,
2013-10-24 17:34:00,73.0,27.0,-100.00,NW,320,5.0,13.0,18,0.00,,,0.00,644.000000,,2013-10-24 23:34:00,
2013-10-24 17:43:00,73.0,27.0,-100.00,NW,320,5.0,13.0,18,0.00,,,0.00,644.000000,,2013-10-24 23:43:00,
2013-10-24 17:53:00,73.0,27.0,-100.00,NW,320,5.0,13.0,18,0.00,,,0.00,644.000000,,2013-10-24 23:53:00,
2013-10-24 18:21:00,70.0,30.0,-100.00,West,259,10.0,11.0,23,0.00,,,0.00,293.000000,,2013-10-25 00:21:00,
2013-10-24 18:33:00,70.0,30.0,-100.00,West,259,10.0,11.0,23,0.00,,,0.00,293.000000,,2013-10-25 00:33:00,
2013-10-24 18:42:00,70.0,30.0,-100.00,West,259,10.0,11.0,23,0.00,,,0.00,293.000000,,2013-10-25 00:42:00,
2013-10-24 18:52:00,70.0,30.0,-100.00,West,259,10.0,11.0,23,0.00,,,0.00,293.000000,,2013-10-25 00:52:00,
2013-10-24 19:21:00,64.0,28.0,-100.00,WSW,258,5.0,20.0,26,-99.99,,,0.00,139.000000,,2013-10-25 01:21:00,
2013-10-24 19:32:00,64.0,28.0,-100.00,WSW,258,5.0,20.0,26,-99.99,,,0.00,139.000000,,2013-10-25 01:32:00,
2013-10-24 19:42:00,64.0,28.0,-100.00,WSW,258,5.0,20.0,26,-99.99,,,0.00,139.000000,,2013-10-25 01:42:00,
2013-10-24 19:53:00,64.0,28.0,-100.00,WSW,258,5.0,20.0,26,-99.99,,,0.00,139.000000,,2013-10-25 01:53:00,
2013-10-24 20:22:00,59.0,27.0,-100.00,South,180,4.0,16.0,29,0.00,,,0.00,5.000000,,2013-10-25 02:22:00,
2013-10-24 20:32:00,59.0,27.0,-100.00,South,180,4.0,16.0,29,0.00,,,0.00,5.000000,,2013-10-25 02:32:00,
2013-10-24 20:42:00,59.0,27.0,-100.00,South,180,4.0,16.0,29,0.00,,,0.00,5.000000,,2013-10-25 02:42:00,
2013-10-24 20:52:00,59.0,27.0,-100.00,South,180,4.0,16.0,29,0.00,,,0.00,5.000000,,2013-10-25 02:52:00,
2013-10-24 21:23:00,56.0,24.0,-100.00,ESE,103,2.0,8.0,29,0.00,,,0.00,0.000000,,2013-10-25 03:23:00,
2013-10-24 21:34:00,56.0,24.0,-100.00,ESE,103,2.0,8.0,29,0.00,,,0.00,0.000000,,2013-10-25 03:34:00,
2013-10-24 21:44:00,56.0,24.0,-100.00,ESE,103,2.0,8.0,29,0.00,,,0.00,0.000000,,2013-10-25 03:44:00,
2013-10-24 21:54:00,56.0,24.0,-100.00,ESE,103,2.0,8.0,29,0.00,,,0.00,0.000000,,2013-10-25 03:54:00,
2013-10-24 22:24:00,53.0,25.0,-100.00,East,100,4.0,7.0,34,0.00,,,0.00,0.000000,,2013-10-25 04:24:00,
2013-10-24 22:34:00,53.0,25.0,-100.00,East,100,4.0,7.0,34,0.00,,,0.00,0.000000,,2013-10-25 04:34:00,
2013-10-24 22:44:00,53.0,25.0,-100.00,East,100,4.0,7.0,34,0.00,,,0.00,0.000000,,2013-10-25 04:44:00,
2013-10-24 22:54:00,53.0,25.0,-100.00,East,100,4.0,7.0,34,0.00,,,0.00,0.000000,,2013-10-25 04:54:00,
2013-10-24 23:21:00,50.0,25.0,-100.00,ESE,106,3.0,8.0,37,0.00,,,0.00,0.000000,,2013-10-25 05:21:00,
2013-10-24 23:32:00,50.0,25.0,-100.00,ESE,106,3.0,8.0,37,0.00,,,0.00,0.000000,,2013-10-25 05:32:00,
2013-10-24 23:42:00,50.0,25.0,-100.00,ESE,106,3.0,8.0,37,0.00,,,0.00,0.000000,,2013-10-25 05:42:00,
2013-10-24 23:51:00,50.0,25.0,-100.00,ESE,106,3.0,8.0,37,0.00,,,0.00,0.000000,,2013-10-25 05:51:00,